Time;durP1;ratioP1;P1;durP2;ratioP2;P2;SDS_P1;SDS_P2;PMS_P1;PMS_P2;Temp;Humidity;BMP_temperature;BMP_pressure;BME280_temperature;BME280_humidity;BME280_pressure;Samples;Min_cycle;Max_cycle;Signal;HPM_P1;HPM_P2
2024/03/31 00:04:06;;;;;;;19.08;12.98;;;6.40;99.90;;;;;;20363859;29;20508;-45
2024/03/31 00:14:06;;;;;;;18.60;12.75;;;6.50;99.90;;;;;;20364068;29;20276;-45
2024/03/31 00:24:07;;;;;;;21.67;14.00;;;6.50;99.90;;;;;;20363863;29;20501;-45
2024/03/31 00:34:09;;;;;;;17.40;12.63;;;6.60;99.90;;;;;;20362739;29;20066;-45
2024/03/31 00:44:10;;;;;;;16.45;11.70;;;6.60;99.90;;;;;;20364003;29;20512;-45
2024/03/31 00:54:10;;;;;;;15.10;11.82;;;6.60;99.90;;;;;;20364152;29;20919;-46
2024/03/31 01:04:11;;;;;;;14.43;11.48;;;6.50;99.90;;;;;;20359639;29;20042;-46
2024/03/31 01:14:14;;;;;;;17.25;12.48;;;6.40;99.90;;;;;;20359909;29;20400;-45
2024/03/31 01:24:14;;;;;;;18.27;12.52;;;6.30;99.90;;;;;;20356870;29;20095;-45
2024/03/31 01:34:16;;;;;;;16.67;11.63;;;6.30;99.90;;;;;;20359634;29;20039;-45
2024/03/31 01:44:16;;;;;;;21.85;14.27;;;6.50;99.90;;;;;;20356924;29;20051;-45
2024/03/31 01:54:17;;;;;;;26.30;15.05;;;6.50;99.90;;;;;;20359334;29;20031;-45
2024/03/31 02:04:18;;;;;;;27.58;15.18;;;6.70;99.90;;;;;;20357260;29;20052;-46
2024/03/31 02:14:19;;;;;;;25.50;15.37;;;6.70;99.90;;;;;;20356220;29;20111;-45
2024/03/31 02:24:20;;;;;;;24.48;15.15;;;6.80;99.90;;;;;;20358450;29;20467;-45
2024/03/31 02:46:13;;;;;;;28.10;15.15;;;6.90;99.90;;;;;;20969144;23;20044;-81
2024/03/31 02:56:45;;;;;;;27.30;15.18;;;7.00;99.90;;;;;;20231720;29;20041;-81
2024/03/31 03:51:03;;;;;;;18.50;10.05;;;7.10;99.90;;;;;;20375700;23;20052;-46
2024/03/31 04:01:04;;;;;;;16.33;9.63;;;7.30;99.90;;;;;;20365545;29;20052;-47
2024/03/31 04:11:04;;;;;;;15.70;9.45;;;7.40;99.90;;;;;;20365220;29;20047;-46
2024/03/31 04:21:08;;;;;;;13.70;8.88;;;7.50;99.90;;;;;;20364349;29;20483;-46
2024/03/31 04:31:08;;;;;;;15.73;8.68;;;7.50;99.90;;;;;;20363403;29;20075;-45
2024/03/31 04:41:09;;;;;;;14.75;8.75;;;7.50;99.90;;;;;;20361501;29;20040;-46
2024/03/31 04:51:09;;;;;;;13.52;8.10;;;7.60;99.90;;;;;;20285378;29;20047;-46
2024/03/31 05:01:10;;;;;;;16.93;9.87;;;7.60;99.90;;;;;;20280550;29;20041;-46
2024/03/31 05:11:11;;;;;;;16.50;10.05;;;7.60;99.90;;;;;;20281008;29;20471;-46
2024/03/31 05:21:12;;;;;;;19.20;10.70;;;7.70;99.90;;;;;;20282828;29;20046;-46
2024/03/31 05:31:12;;;;;;;18.98;10.45;;;7.70;99.90;;;;;;20281535;29;20536;-46
2024/03/31 05:41:13;;;;;;;20.65;10.32;;;7.80;99.90;;;;;;20278924;29;20049;-47
2024/03/31 05:51:13;;;;;;;18.73;10.05;;;7.80;99.90;;;;;;20279180;29;20900;-46
2024/03/31 06:01:14;;;;;;;17.95;10.82;;;7.80;99.90;;;;;;20277396;29;20075;-47
2024/03/31 06:11:15;;;;;;;21.85;11.65;;;7.80;99.90;;;;;;20292825;29;20508;-46
2024/03/31 06:21:15;;;;;;;19.52;10.98;;;7.80;99.90;;;;;;20295615;29;20097;-47
2024/03/31 06:31:16;;;;;;;17.58;10.48;;;7.90;99.90;;;;;;20293524;29;20581;-46
2024/03/31 06:41:17;;;;;;;15.88;9.88;;;7.90;99.90;;;;;;20292930;29;20036;-46
2024/03/31 06:51:18;;;;;;;19.20;10.90;;;7.90;99.90;;;;;;20292793;29;20083;-47
2024/03/31 07:01:19;;;;;;;18.67;10.63;;;7.90;99.90;;;;;;20292949;29;20551;-46
2024/03/31 07:11:19;;;;;;;17.63;10.73;;;7.90;99.90;;;;;;20289009;29;20068;-46
2024/03/31 07:21:20;;;;;;;20.27;12.68;;;7.90;99.90;;;;;;20289537;29;20054;-47
2024/03/31 07:31:20;;;;;;;20.33;11.97;;;8.10;99.90;;;;;;20289393;29;20151;-47
2024/03/31 07:41:21;;;;;;;21.00;13.43;;;8.20;99.90;;;;;;20288514;29;20477;-46
2024/03/31 07:51:22;;;;;;;28.15;15.43;;;8.30;99.90;;;;;;20287499;29;20068;-47
2024/03/31 08:01:22;;;;;;;30.20;16.80;;;8.50;99.90;;;;;;20287838;29;20079;-46
2024/03/31 08:11:23;;;;;;;29.02;16.92;;;8.70;99.90;;;;;;20287071;29;20427;-47
2024/03/31 08:21:24;;;;;;;31.42;19.38;;;8.90;99.90;;;;;;20286383;29;20043;-47
2024/03/31 08:31:24;;;;;;;36.60;22.55;;;9.00;99.90;;;;;;20283933;29;20070;-47
2024/03/31 08:41:35;;;;;;;39.95;23.88;;;9.10;99.90;;;;;;20283835;29;20086;-47
2024/03/31 08:51:36;;;;;;;43.22;27.60;;;9.20;99.90;;;;;;20283460;29;20048;-47
2024/03/31 09:01:37;;;;;;;43.22;27.17;;;9.50;99.90;;;;;;20281986;29;20044;-47
2024/03/31 09:11:38;;;;;;;40.00;26.52;;;9.70;99.90;;;;;;20282930;29;20044;-47
2024/03/31 09:21:46;;;;;;;43.10;28.17;;;9.70;99.90;;;;;;20279980;29;20522;-46
2024/03/31 09:31:47;;;;;;;44.05;29.23;;;9.90;99.90;;;;;;20280269;29;20449;-47
2024/03/31 09:41:49;;;;;;;43.72;31.20;;;10.10;99.90;;;;;;20278133;29;20074;-47
2024/03/31 09:51:54;;;;;;;48.67;35.63;;;10.50;99.90;;;;;;20278176;29;20544;-47
2024/03/31 10:01:55;;;;;;;44.28;33.05;;;11.00;99.90;;;;;;20279021;29;20116;-47
2024/03/31 10:11:57;;;;;;;45.28;32.70;;;11.50;99.90;;;;;;20279532;29;20544;-47
2024/03/31 10:21:59;;;;;;;41.72;33.10;;;11.60;99.90;;;;;;20274007;29;20051;-47
2024/03/31 10:31:59;;;;;;;40.25;30.50;;;11.90;99.90;;;;;;20277168;29;20036;-47
2024/03/31 10:42:00;;;;;;;34.25;28.02;;;12.80;94.50;;;;;;20276525;29;20058;-45
2024/03/31 10:52:01;;;;;;;26.25;19.70;;;13.40;59.90;;;;;;20282868;29;20254;-45
2024/03/31 11:02:14;;;;;;;21.75;16.27;;;13.90;22.20;;;;;;20288698;29;20524;-47
2024/03/31 11:12:14;;;;;;;17.80;13.07;;;14.60;6.50;;;;;;20289590;29;20048;-47
2024/03/31 11:22:15;;;;;;;15.43;9.82;;;15.50;1.00;;;;;;20287384;29;20112;-47
2024/03/31 11:32:16;;;;;;;11.07;7.22;;;16.00;1.00;;;;;;20290074;29;20568;-47
2024/03/31 11:42:17;;;;;;;8.35;5.03;;;16.80;1.00;;;;;;20286502;29;20041;-47
2024/03/31 11:52:18;;;;;;;12.67;5.33;;;17.10;1.00;;;;;;20286810;29;20047;-45
2024/03/31 12:02:18;;;;;;;7.63;4.15;;;18.00;1.00;;;;;;20284255;29;20706;-45
2024/03/31 12:12:19;;;;;;;15.48;6.03;;;18.10;1.00;;;;;;20281783;29;20127;-45
2024/03/31 12:22:20;;;;;;;15.18;5.78;;;18.10;1.00;;;;;;20281869;29;20497;-44
2024/03/31 12:32:22;;;;;;;13.88;6.72;;;17.40;1.00;;;;;;20283084;29;20401;-45
2024/03/31 12:42:26;;;;;;;14.80;7.07;;;16.40;1.00;;;;;;20281662;29;20420;-47
2024/03/31 12:52:30;;;;;;;16.08;7.15;;;16.00;1.00;;;;;;20281181;29;20037;-47
2024/03/31 13:02:31;;;;;;;12.75;6.40;;;16.10;1.00;;;;;;20280082;29;20036;-45
2024/03/31 13:12:32;;;;;;;11.63;5.53;;;16.30;1.00;;;;;;20280329;29;20043;-45
2024/03/31 13:22:34;;;;;;;9.13;3.45;;;16.40;1.00;;;;;;20277887;29;20136;-45
2024/03/31 13:32:36;;;;;;;10.20;3.85;;;16.40;1.00;;;;;;20279162;29;20039;-45
2024/03/31 13:42:36;;;;;;;8.80;3.13;;;16.20;1.00;;;;;;20274928;29;20487;-45
2024/03/31 13:52:37;;;;;;;9.43;2.60;;;16.40;1.00;;;;;;20278218;29;20036;-45
2024/03/31 14:02:38;;;;;;;12.43;2.70;;;17.60;1.00;;;;;;20276369;29;20070;-45
2024/03/31 14:12:41;;;;;;;12.07;2.87;;;17.60;1.00;;;;;;20277603;29;20190;-45
2024/03/31 14:22:41;;;;;;;8.65;2.83;;;17.10;1.00;;;;;;20276721;29;20427;-44
2024/03/31 14:32:42;;;;;;;4.55;1.63;;;16.40;1.00;;;;;;20290166;29;20551;-45
2024/03/31 14:42:43;;;;;;;7.78;1.40;;;14.80;1.00;;;;;;20288439;29;20044;-45
2024/03/31 14:52:44;;;;;;;5.05;1.40;;;13.90;1.00;;;;;;20289583;29;20040;-47
2024/03/31 15:02:45;;;;;;;3.97;1.40;;;13.70;24.80;;;;;;20289010;29;20044;-45
2024/03/31 15:12:46;;;;;;;7.53;1.75;;;13.70;31.80;;;;;;20288561;29;20051;-46
2024/03/31 15:22:46;;;;;;;7.55;1.50;;;13.80;79.80;;;;;;20287326;29;20048;-46
2024/03/31 15:32:50;;;;;;;6.65;1.60;;;14.00;89.20;;;;;;20286265;29;20044;-45
2024/03/31 15:42:51;;;;;;;5.95;1.23;;;14.10;74.50;;;;;;20285842;29;20436;-46
2024/03/31 15:52:51;;;;;;;5.90;1.58;;;14.10;60.30;;;;;;20286394;29;20044;-46
2024/03/31 16:02:52;;;;;;;6.63;1.38;;;14.10;65.10;;;;;;20286651;29;20481;-46
2024/03/31 16:12:53;;;;;;;8.07;2.88;;;14.00;72.80;;;;;;20285368;29;20059;-46
2024/03/31 16:22:53;;;;;;;5.10;1.77;;;13.90;85.30;;;;;;20283639;29;20047;-46
2024/03/31 16:32:54;;;;;;;12.13;3.27;;;13.40;99.90;;;;;;20283332;29;20454;-44
2024/03/31 16:42:55;;;;;;;6.80;2.13;;;13.10;99.90;;;;;;20279364;29;20052;-44
2024/03/31 16:52:55;;;;;;;5.68;2.75;;;12.50;99.90;;;;;;20281795;29;20043;-45
2024/03/31 17:02:56;;;;;;;5.82;1.92;;;12.00;99.90;;;;;;20280984;29;20534;-46
2024/03/31 17:12:57;;;;;;;4.10;1.93;;;11.80;99.90;;;;;;20278916;29;20045;-46
2024/03/31 17:22:57;;;;;;;7.30;2.20;;;11.80;99.90;;;;;;20279839;29;20649;-45
2024/03/31 17:32:58;;;;;;;4.32;1.75;;;11.70;99.90;;;;;;20277648;29;20040;-45
2024/03/31 17:42:59;;;;;;;7.55;2.42;;;11.60;99.90;;;;;;20275480;29;20052;-45
2024/03/31 17:52:59;;;;;;;6.85;3.08;;;11.50;99.90;;;;;;20278753;29;20450;-46
2024/03/31 18:03:00;;;;;;;4.82;3.03;;;11.50;99.90;;;;;;20286649;29;20129;-45
2024/03/31 18:13:00;;;;;;;7.70;3.60;;;11.50;99.90;;;;;;20294893;29;20124;-46
2024/03/31 18:23:01;;;;;;;5.28;3.42;;;11.50;99.90;;;;;;20293018;29;20044;-46
2024/03/31 18:33:02;;;;;;;10.38;5.20;;;11.40;99.90;;;;;;20293439;29;20083;-46
2024/03/31 18:43:02;;;;;;;6.82;3.97;;;11.40;99.90;;;;;;20289995;29;20056;-46
2024/03/31 18:53:03;;;;;;;9.77;4.97;;;11.40;1.00;;;;;;20289673;29;20091;-46
2024/03/31 19:03:04;;;;;;;12.27;6.30;;;11.30;1.00;;;;;;20289950;29;20833;-46
2024/03/31 19:13:05;;;;;;;10.20;5.18;;;11.30;1.00;;;;;;20289165;29;20116;-46
2024/03/31 19:23:05;;;;;;;9.67;5.43;;;11.30;1.00;;;;;;20289253;29;20531;-46
2024/03/31 19:33:06;;;;;;;9.10;6.00;;;11.30;1.00;;;;;;20288606;29;20448;-46
2024/03/31 19:43:07;;;;;;;9.15;6.90;;;11.40;1.00;;;;;;20285984;29;20059;-46
2024/03/31 19:53:08;;;;;;;11.70;8.05;;;11.40;1.00;;;;;;20285482;29;20045;-47
2024/03/31 20:03:08;;;;;;;14.85;10.57;;;11.40;1.00;;;;;;20284361;29;20052;-47
2024/03/31 20:13:09;;;;;;;16.27;10.80;;;11.40;1.00;;;;;;20285173;29;20072;-50
2024/03/31 20:23:09;;;;;;;16.92;11.48;;;11.40;1.00;;;;;;20284977;29;20539;-46
2024/03/31 20:33:10;;;;;;;17.65;12.43;;;11.40;1.00;;;;;;20282766;29;20047;-47
2024/03/31 20:43:11;;;;;;;17.55;12.00;;;11.40;1.00;;;;;;20283913;29;20087;-46
2024/03/31 20:53:11;;;;;;;19.83;14.07;;;11.40;1.00;;;;;;20283654;29;20112;-47
2024/03/31 21:03:12;;;;;;;18.27;12.68;;;11.40;1.00;;;;;;20281189;29;20104;-47
2024/03/31 21:13:13;;;;;;;22.45;13.52;;;11.30;1.00;;;;;;20278024;29;20405;-47
2024/03/31 21:23:13;;;;;;;16.50;10.90;;;11.30;1.00;;;;;;20281134;29;20089;-46
2024/03/31 21:33:14;;;;;;;15.15;9.88;;;11.40;1.00;;;;;;20279080;29;20084;-46
2024/03/31 21:43:15;;;;;;;15.35;9.80;;;11.50;1.00;;;;;;20278033;29;20079;-46
2024/03/31 21:53:15;;;;;;;17.20;9.77;;;11.50;1.00;;;;;;20278473;29;20040;-46
2024/03/31 22:03:16;;;;;;;13.95;9.45;;;11.40;1.00;;;;;;20277650;29;20510;-46
2024/03/31 22:13:17;;;;;;;16.10;8.82;;;11.40;1.00;;;;;;20277693;29;20051;-46
2024/03/31 22:23:17;;;;;;;14.52;8.32;;;11.30;99.90;;;;;;20279429;29;20416;-47
2024/03/31 22:33:18;;;;;;;13.02;8.65;;;11.30;99.90;;;;;;20275843;29;20049;-47
2024/03/31 22:43:20;;;;;;;13.50;9.20;;;11.20;99.90;;;;;;20275979;29;20055;-47
2024/03/31 22:53:21;;;;;;;15.45;7.53;;;11.20;99.90;;;;;;20290133;29;20040;-47
2024/03/31 23:03:22;;;;;;;14.23;7.00;;;11.10;99.90;;;;;;20289076;29;20040;-47
2024/03/31 23:13:22;;;;;;;9.07;5.50;;;11.00;99.90;;;;;;20288478;29;20048;-47
2024/03/31 23:23:23;;;;;;;12.50;5.30;;;11.00;99.90;;;;;;20289984;29;20101;-47
2024/03/31 23:33:24;;;;;;;11.43;5.35;;;11.00;99.90;;;;;;20288503;29;20044;-47
2024/03/31 23:43:25;;;;;;;9.88;5.28;;;11.00;99.90;;;;;;20286687;29;20052;-47
2024/03/31 23:53:26;;;;;;;7.95;4.75;;;11.00;99.90;;;;;;20286453;29;20044;-48
